createdAt,value
2019-06-26T00:00:19.567Z,71.70
2019-06-26T00:01:20.370Z,71.72
2019-06-26T00:02:20.704Z,71.58
2019-06-26T00:03:21.595Z,71.85
2019-06-26T00:03:30.137Z,72.24
2019-06-26T00:04:31.304Z,72.28
2019-06-26T00:05:31.396Z,72.17
2019-06-26T00:06:31.994Z,71.90
2019-06-26T00:07:32.317Z,71.79
2019-06-26T00:08:33.020Z,71.79
2019-06-26T00:09:33.191Z,72.56
2019-06-26T00:10:34.008Z,72.32
2019-06-26T00:11:34.219Z,72.24
2019-06-26T00:12:34.364Z,71.94
2019-06-26T00:13:35.240Z,72.67
2019-06-26T00:14:38.730Z,72.83
2019-06-26T00:15:36.015Z,73.09
2019-06-26T00:16:37.084Z,72.93
2019-06-26T00:17:38.009Z,73.13
2019-06-26T00:18:38.938Z,73.75
2019-06-26T00:19:38.980Z,73.49
2019-06-26T00:20:39.772Z,73.12
2019-06-26T00:21:40.706Z,73.03
2019-06-26T00:22:40.743Z,73.25
2019-06-26T00:23:39.957Z,73.31
2019-06-26T00:24:41.930Z,73.23
2019-06-26T00:25:42.018Z,73.36
2019-06-26T00:26:42.337Z,72.98
2019-06-26T00:27:43.018Z,73.25
2019-06-26T00:28:43.105Z,73.64
2019-06-26T00:29:44.135Z,73.48
2019-06-26T00:30:44.722Z,73.43
2019-06-26T00:31:44.313Z,73.41
2019-06-26T00:32:46.194Z,73.32
2019-06-26T00:33:46.274Z,73.31
2019-06-26T00:34:47.073Z,73.62
2019-06-26T00:35:47.708Z,73.60
2019-06-26T00:36:48.621Z,74.00
2019-06-26T00:37:48.805Z,73.84
2019-06-26T00:38:47.971Z,73.96
2019-06-26T00:39:49.325Z,74.24
2019-06-26T00:40:50.294Z,74.00
2019-06-26T00:41:50.535Z,74.05
2019-06-26T00:42:50.645Z,73.93
2019-06-26T00:43:50.438Z,74.07
2019-06-26T00:44:52.109Z,74.20
2019-06-26T00:45:53.078Z,74.05
2019-06-26T00:46:53.194Z,74.44
2019-06-26T00:47:53.324Z,74.32
2019-06-26T00:48:54.286Z,74.58
2019-06-26T00:49:54.381Z,74.47
2019-06-26T00:50:02.901Z,75.00
2019-06-26T00:51:04.776Z,75.07
2019-06-26T00:52:05.658Z,75.31
2019-06-26T00:53:05.893Z,75.27
2019-06-26T00:54:05.989Z,75.47
2019-06-26T00:55:05.800Z,75.28
2019-06-26T00:56:07.671Z,75.20
2019-06-26T00:57:08.429Z,75.64
2019-06-26T00:58:08.491Z,75.57
2019-06-26T00:59:09.425Z,75.56
2019-06-26T01:00:09.436Z,75.67
2019-06-26T01:01:10.045Z,75.74
2019-06-26T01:02:10.713Z,75.56
2019-06-26T01:03:10.889Z,75.47
2019-06-26T01:04:11.640Z,75.46
2019-06-26T01:05:12.370Z,75.39
2019-06-26T01:06:13.340Z,75.49
2019-06-26T01:07:13.884Z,75.04
2019-06-26T01:08:14.447Z,75.14
2019-06-26T01:09:14.907Z,75.17
2019-06-26T01:10:14.923Z,75.21
2019-06-26T01:11:15.826Z,75.61
2019-06-26T01:12:16.543Z,75.10
2019-06-26T01:13:17.480Z,75.02
2019-06-26T01:14:17.690Z,75.16
2019-06-26T01:15:18.522Z,75.48
2019-06-26T01:16:18.626Z,75.46
2019-06-26T01:17:18.499Z,75.87
2019-06-26T01:18:20.405Z,76.04
2019-06-26T01:19:20.469Z,76.08
2019-06-26T01:20:21.349Z,76.14
2019-06-26T01:21:21.873Z,76.10
2019-06-26T01:22:22.725Z,76.08
2019-06-26T01:23:22.913Z,76.11
2019-06-26T01:24:23.736Z,76.11
2019-06-26T01:25:23.801Z,76.01
2019-06-26T01:26:24.762Z,76.40
2019-06-26T01:27:25.648Z,76.45
2019-06-26T01:28:26.638Z,76.47
2019-06-26T01:29:26.871Z,76.71
2019-06-26T01:30:27.257Z,76.53
2019-06-26T01:31:27.522Z,76.50
2019-06-26T01:32:27.306Z,76.43
2019-06-26T01:33:29.150Z,76.42
2019-06-26T01:34:29.967Z,76.71
2019-06-26T01:34:38.615Z,76.84
2019-06-26T01:35:38.763Z,76.91
2019-06-26T01:36:39.774Z,76.90
2019-06-26T01:37:40.065Z,76.93
2019-06-26T01:38:41.002Z,76.51
2019-06-26T01:39:41.888Z,76.79
2019-06-26T01:40:42.900Z,77.17
2019-06-26T01:41:43.476Z,77.53
2019-06-26T01:42:43.531Z,77.48
2019-06-26T01:43:43.578Z,77.05
2019-06-26T01:44:44.335Z,76.98
2019-06-26T01:45:45.206Z,77.33
2019-06-26T01:46:45.253Z,77.57
2019-06-26T01:47:45.302Z,77.67
2019-06-26T01:48:45.892Z,77.44
2019-06-26T01:49:46.644Z,77.57
2019-06-26T01:50:47.591Z,77.91
2019-06-26T01:51:48.370Z,77.79
2019-06-26T01:52:49.291Z,78.66
2019-06-26T01:53:50.297Z,78.91
2019-06-26T01:54:50.493Z,78.53
2019-06-26T01:55:50.267Z,78.07
2019-06-26T01:56:51.793Z,78.12
2019-06-26T01:57:52.708Z,78.20
2019-06-26T01:58:52.807Z,78.89
2019-06-26T01:59:53.232Z,79.03
2019-06-26T02:00:54.198Z,78.99
2019-06-26T02:01:54.361Z,79.38
2019-06-26T02:02:55.243Z,79.46
2019-06-26T02:03:55.249Z,79.27
2019-06-26T02:04:56.071Z,79.61
2019-06-26T02:05:56.244Z,79.50
2019-06-26T02:06:57.244Z,79.19
2019-06-26T02:07:57.360Z,78.96
2019-06-26T02:08:58.220Z,78.57
2019-06-26T02:09:58.289Z,78.70
2019-06-26T02:10:58.305Z,78.47
2019-06-26T02:12:00.548Z,78.51
2019-06-26T02:12:57.624Z,79.00
2019-06-26T02:13:58.348Z,78.93
2019-06-26T02:15:00.098Z,79.10
2019-06-26T02:16:00.939Z,79.24
2019-06-26T02:17:01.243Z,79.14
2019-06-26T02:18:02.142Z,79.30
2019-06-26T02:19:03.133Z,79.55
2019-06-26T02:20:04.102Z,79.12
2019-06-26T02:21:04.826Z,78.87
2019-06-26T02:21:13.394Z,78.93
2019-06-26T02:22:15.277Z,78.91
2019-06-26T02:23:16.042Z,78.63
2019-06-26T02:24:16.970Z,78.95
2019-06-26T02:25:17.448Z,78.82
2019-06-26T02:26:17.911Z,78.92
2019-06-26T02:27:18.301Z,79.13
2019-06-26T02:28:19.188Z,79.18
2019-06-26T02:29:19.708Z,79.69
2019-06-26T02:30:20.633Z,79.80
2019-06-26T02:31:21.565Z,79.59
2019-06-26T02:32:21.640Z,79.75
2019-06-26T02:33:21.904Z,79.65
2019-06-26T02:34:22.640Z,79.77
2019-06-26T02:35:23.615Z,79.63
2019-06-26T02:36:24.281Z,79.64
2019-06-26T02:37:25.230Z,79.58
2019-06-26T02:38:25.288Z,79.23
2019-06-26T02:39:26.255Z,79.78
2019-06-26T02:40:26.515Z,79.72
2019-06-26T02:41:27.202Z,79.40
2019-06-26T02:42:27.407Z,79.51
2019-06-26T02:43:27.405Z,80.10
2019-06-26T02:44:28.155Z,80.24
2019-06-26T02:45:28.833Z,79.72
2019-06-26T02:46:27.910Z,79.72
2019-06-26T02:47:29.035Z,79.79
2019-06-26T02:48:29.007Z,79.79
2019-06-26T02:49:29.102Z,80.24
2019-06-26T02:50:29.211Z,80.37
2019-06-26T02:51:29.283Z,80.80
2019-06-26T02:52:30.239Z,80.96
2019-06-26T02:53:30.288Z,81.24
2019-06-26T02:54:30.447Z,81.56
2019-06-26T02:55:30.845Z,81.28
2019-06-26T02:56:31.274Z,80.87
2019-06-26T02:57:31.697Z,81.12
2019-06-26T02:58:32.450Z,81.10
2019-06-26T02:59:33.341Z,81.36
2019-06-26T03:00:34.060Z,81.25
2019-06-26T03:01:35.010Z,81.55
2019-06-26T03:02:36.025Z,81.12
2019-06-26T03:03:36.305Z,80.91
2019-06-26T03:03:44.875Z,80.93
2019-06-26T03:04:46.043Z,80.96
2019-06-26T03:05:46.984Z,81.36
2019-06-26T03:06:47.819Z,81.11
2019-06-26T03:07:48.649Z,80.79
2019-06-26T03:08:48.628Z,80.99
2019-06-26T03:09:49.069Z,81.26
2019-06-26T03:10:49.366Z,81.32
2019-06-26T03:11:49.647Z,81.11
2019-06-26T03:12:49.687Z,81.28
2019-06-26T03:13:49.917Z,81.46
2019-06-26T03:14:50.803Z,81.22
2019-06-26T03:15:51.041Z,81.48
2019-06-26T03:16:51.170Z,81.45
2019-06-26T03:17:55.591Z,81.48
2019-06-26T03:18:52.066Z,81.50
2019-06-26T03:19:53.886Z,81.67
2019-06-26T03:20:53.996Z,81.39
2019-06-26T03:21:54.974Z,81.70
2019-06-26T03:22:55.872Z,81.82
2019-06-26T03:23:56.731Z,81.58
2019-06-26T03:24:57.074Z,81.56
2019-06-26T03:25:57.365Z,82.03
2019-06-26T03:26:57.511Z,82.45
2019-06-26T03:27:57.084Z,82.76
2019-06-26T03:28:58.264Z,82.65
2019-06-26T03:29:58.481Z,82.93
2019-06-26T03:30:57.888Z,82.56
2019-06-26T03:31:58.887Z,82.64
2019-06-26T03:32:58.899Z,82.38
2019-06-26T03:33:59.887Z,82.50
2019-06-26T03:35:00.615Z,82.81
2019-06-26T03:36:00.729Z,82.52
2019-06-26T03:37:00.733Z,82.80
2019-06-26T03:37:59.745Z,82.68
2019-06-26T03:39:01.575Z,82.65
2019-06-26T03:40:02.252Z,82.61
2019-06-26T03:41:03.214Z,82.32
2019-06-26T03:42:03.823Z,82.29
2019-06-26T03:43:03.867Z,82.33
2019-06-26T03:44:04.655Z,82.20
2019-06-26T03:45:05.603Z,82.43
2019-06-26T03:46:06.365Z,82.26
2019-06-26T03:47:06.747Z,82.55
2019-06-26T03:48:07.606Z,82.33
2019-06-26T03:49:08.381Z,82.23
2019-06-26T03:49:16.907Z,82.16
2019-06-26T03:50:18.940Z,82.15
2019-06-26T03:51:19.353Z,82.27
2019-06-26T03:52:20.170Z,81.94
2019-06-26T03:53:20.844Z,81.88
2019-06-26T03:54:21.442Z,81.74
2019-06-26T03:55:22.400Z,82.07
2019-06-26T03:56:23.335Z,81.48
2019-06-26T03:57:24.287Z,82.03
2019-06-26T03:58:24.965Z,82.16
2019-06-26T03:59:25.174Z,81.98
2019-06-26T04:00:26.194Z,81.80
2019-06-26T04:01:26.932Z,82.12
2019-06-26T04:02:27.117Z,81.88
2019-06-26T04:03:28.031Z,81.87
2019-06-26T04:04:28.626Z,82.29
2019-06-26T04:05:28.688Z,82.43
2019-06-26T04:06:28.925Z,82.55
2019-06-26T04:07:29.054Z,82.60
2019-06-26T04:08:29.756Z,82.44
2019-06-26T04:09:28.990Z,82.51
2019-06-26T04:10:30.055Z,82.53
2019-06-26T04:11:30.833Z,82.20
2019-06-26T04:12:31.139Z,82.53
2019-06-26T04:13:31.249Z,83.05
2019-06-26T04:14:32.222Z,82.92
2019-06-26T04:15:42.077Z,82.82
2019-06-26T04:16:32.909Z,82.58
2019-06-26T04:17:34.121Z,82.34
2019-06-26T04:18:34.886Z,82.38
2019-06-26T04:19:35.765Z,82.28
2019-06-26T04:20:35.848Z,82.66
2019-06-26T04:21:35.950Z,82.06
2019-06-26T04:22:36.844Z,82.20
2019-06-26T04:23:37.568Z,82.22
2019-06-26T04:24:38.534Z,82.13
2019-06-26T04:25:38.980Z,82.37
2019-06-26T04:26:39.369Z,82.44
2019-06-26T04:27:40.106Z,82.16
2019-06-26T04:28:39.943Z,82.03
2019-06-26T04:29:41.823Z,81.94
2019-06-26T04:30:41.992Z,81.79
2019-06-26T04:31:42.870Z,81.70
2019-06-26T04:32:43.671Z,81.74
2019-06-26T04:32:52.240Z,82.01
2019-06-26T04:33:53.920Z,82.02
2019-06-26T04:34:54.731Z,81.69
2019-06-26T04:35:54.973Z,81.78
2019-06-26T04:36:55.785Z,81.62
2019-06-26T04:37:56.611Z,81.52
2019-06-26T04:38:57.153Z,81.58
2019-06-26T04:39:58.150Z,81.57
2019-06-26T04:40:58.269Z,81.55
2019-06-26T04:41:59.213Z,81.31
2019-06-26T04:43:00.067Z,81.07
2019-06-26T04:44:00.181Z,81.23
2019-06-26T04:45:00.979Z,80.90
2019-06-26T04:46:02.012Z,81.37
2019-06-26T04:47:01.615Z,81.28
2019-06-26T04:48:02.202Z,81.25
2019-06-26T04:49:04.169Z,81.10
2019-06-26T04:50:05.167Z,80.73
2019-06-26T04:51:05.333Z,81.24
2019-06-26T04:52:06.104Z,81.17
2019-06-26T04:53:06.546Z,80.98
2019-06-26T04:54:05.746Z,80.92
2019-06-26T04:55:07.163Z,80.83
2019-06-26T04:56:06.997Z,80.52
2019-06-26T04:57:08.600Z,80.43
2019-06-26T04:58:09.045Z,80.95
2019-06-26T04:59:08.325Z,80.60
2019-06-26T05:00:09.361Z,80.65
2019-06-26T05:01:10.029Z,80.71
2019-06-26T05:02:09.071Z,81.12
2019-06-26T05:03:09.898Z,80.76
2019-06-26T05:04:11.787Z,80.58
2019-06-26T05:05:12.676Z,79.62
2019-06-26T05:06:13.649Z,79.71
2019-06-26T05:07:14.533Z,78.57
2019-06-26T05:08:15.545Z,77.53
2019-06-26T05:09:14.825Z,76.54
2019-06-26T05:10:16.179Z,76.05
2019-06-26T05:11:16.565Z,74.92
2019-06-26T05:12:16.688Z,74.02
2019-06-26T05:13:17.705Z,74.10
2019-06-26T05:14:18.635Z,73.67
2019-06-26T05:15:19.279Z,73.02
2019-06-26T05:16:20.599Z,72.24
2019-06-26T05:17:19.663Z,70.99
2019-06-26T05:18:20.911Z,71.33
2019-06-26T05:19:21.263Z,70.72
2019-06-26T05:20:21.435Z,70.08
2019-06-26T05:21:22.320Z,69.93
2019-06-26T05:22:22.353Z,70.12
2019-06-26T05:23:23.066Z,69.71
2019-06-26T05:23:31.633Z,69.57
2019-06-26T05:24:33.514Z,69.67
2019-06-26T05:25:33.573Z,69.00
2019-06-26T05:26:34.515Z,69.88
2019-06-26T05:27:35.122Z,68.85
2019-06-26T05:28:36.094Z,68.99
2019-06-26T05:29:36.835Z,68.09
2019-06-26T05:30:36.737Z,67.93
2019-06-26T05:31:38.005Z,66.97
2019-06-26T05:32:38.748Z,65.89
2019-06-26T05:33:39.524Z,65.67
2019-06-26T05:34:39.575Z,64.79
2019-06-26T05:35:40.036Z,65.34
2019-06-26T05:36:40.892Z,64.39
2019-06-26T05:37:40.919Z,63.80
2019-06-26T05:38:41.006Z,63.15
2019-06-26T05:39:41.375Z,62.63
2019-06-26T05:40:42.347Z,61.78
2019-06-26T05:41:43.006Z,61.24
2019-06-26T05:42:43.567Z,61.38
2019-06-26T05:43:44.433Z,61.35
2019-06-26T05:44:44.692Z,60.97
2019-06-26T05:45:45.252Z,60.79
2019-06-26T05:46:45.726Z,61.24
2019-06-26T05:47:46.435Z,61.69
2019-06-26T05:48:47.342Z,62.42
2019-06-26T05:49:47.899Z,61.18
2019-06-26T05:50:48.746Z,60.43
2019-06-26T05:51:49.707Z,59.93
2019-06-26T05:52:50.601Z,60.23
2019-06-26T05:53:50.631Z,59.48
2019-06-26T05:54:50.648Z,58.69
2019-06-26T05:55:51.056Z,59.01
2019-06-26T05:56:52.061Z,58.48
2019-06-26T05:57:51.666Z,58.14
2019-06-26T05:58:52.798Z,57.93
2019-06-26T05:59:53.691Z,57.29
2019-06-26T06:00:53.752Z,57.61
2019-06-26T06:01:54.454Z,57.35
2019-06-26T06:02:55.418Z,57.34
2019-06-26T06:03:56.085Z,57.10
2019-06-26T06:04:56.966Z,56.75
2019-06-26T06:05:57.785Z,57.66
2019-06-26T06:06:57.822Z,57.27
2019-06-26T06:07:58.057Z,56.60
2019-06-26T06:08:06.600Z,56.39
2019-06-26T06:09:07.801Z,56.47
2019-06-26T06:10:07.880Z,57.77
2019-06-26T06:11:07.874Z,58.32
2019-06-26T06:12:08.504Z,57.24
2019-06-26T06:13:08.514Z,56.87
2019-06-26T06:14:08.759Z,56.22
2019-06-26T06:15:08.860Z,56.44
2019-06-26T06:16:09.696Z,55.77
2019-06-26T06:17:10.067Z,55.12
2019-06-26T06:18:10.244Z,54.36
2019-06-26T06:19:11.165Z,54.02
2019-06-26T06:20:11.622Z,53.53
2019-06-26T06:21:11.914Z,54.64
2019-06-26T06:22:12.818Z,53.83
2019-06-26T06:23:13.682Z,53.18
2019-06-26T06:24:14.085Z,53.53
2019-06-26T06:25:13.283Z,52.74
2019-06-26T06:26:14.193Z,52.54
2019-06-26T06:27:15.105Z,52.16
2019-06-26T06:28:16.902Z,51.71
2019-06-26T06:29:17.306Z,52.31
2019-06-26T06:30:18.188Z,51.91
2019-06-26T06:31:17.152Z,50.81
2019-06-26T06:32:18.982Z,49.99
2019-06-26T06:33:19.659Z,49.74
2019-06-26T06:34:20.518Z,49.76
2019-06-26T06:35:20.901Z,50.17
2019-06-26T06:36:21.108Z,50.46
2019-06-26T06:37:21.380Z,50.13
2019-06-26T06:38:22.081Z,49.17
2019-06-26T06:39:22.464Z,49.34
2019-06-26T06:40:23.480Z,49.06
2019-06-26T06:41:24.423Z,48.51
2019-06-26T06:42:24.295Z,48.75
2019-06-26T06:43:25.578Z,49.23
2019-06-26T06:44:26.500Z,48.67
2019-06-26T06:45:26.649Z,48.60
2019-06-26T06:46:27.459Z,48.76
2019-06-26T06:47:27.851Z,48.64
2019-06-26T06:48:28.738Z,48.69
2019-06-26T06:49:28.903Z,47.43
2019-06-26T06:50:29.542Z,47.26
2019-06-26T06:51:30.423Z,47.06
2019-06-26T06:52:30.921Z,46.87
2019-06-26T06:53:31.926Z,46.49
2019-06-26T06:53:40.444Z,47.54
2019-06-26T06:54:41.478Z,47.34
2019-06-26T06:55:41.594Z,48.61
2019-06-26T06:56:42.452Z,48.27
2019-06-26T06:57:42.616Z,47.84
2019-06-26T06:58:42.899Z,48.24
2019-06-26T06:59:41.995Z,47.18
2019-06-26T07:00:43.310Z,46.92
2019-06-26T07:01:43.899Z,47.42
2019-06-26T07:02:44.815Z,47.38
2019-06-26T07:03:44.958Z,47.88
2019-06-26T07:04:45.802Z,48.67
2019-06-26T07:05:45.949Z,47.82
2019-06-26T07:06:46.408Z,48.47
2019-06-26T07:07:46.520Z,49.31
2019-06-26T07:08:46.523Z,49.90
2019-06-26T07:09:47.519Z,50.38
2019-06-26T07:10:46.588Z,50.99
2019-06-26T07:11:48.415Z,50.57
2019-06-26T07:12:48.529Z,53.24
2019-06-26T07:13:49.403Z,56.88
2019-06-26T07:14:49.566Z,55.93
2019-06-26T07:15:49.917Z,55.71
2019-06-26T07:16:49.878Z,55.62
2019-06-26T07:17:51.504Z,55.38
2019-06-26T07:18:52.400Z,55.81
2019-06-26T07:19:53.238Z,55.17
2019-06-26T07:20:53.456Z,55.07
2019-06-26T07:21:54.306Z,55.58
2019-06-26T07:22:55.193Z,55.47
2019-06-26T07:23:56.009Z,56.00
2019-06-26T07:24:56.924Z,55.79
2019-06-26T07:25:57.029Z,55.86
2019-06-26T07:26:57.858Z,56.04
2019-06-26T07:28:01.804Z,56.05
2019-06-26T07:28:58.770Z,56.35
2019-06-26T07:30:00.510Z,56.11
2019-06-26T07:31:01.284Z,56.23
2019-06-26T07:32:02.117Z,56.34
2019-06-26T07:33:02.367Z,57.01
2019-06-26T07:34:02.481Z,56.89
2019-06-26T07:35:02.812Z,56.92
2019-06-26T07:36:01.707Z,57.03
2019-06-26T07:37:01.845Z,57.03
2019-06-26T07:38:03.443Z,57.53
2019-06-26T07:39:03.616Z,57.54
2019-06-26T07:40:04.224Z,57.98
2019-06-26T07:40:13.261Z,58.23
2019-06-26T07:41:15.017Z,58.28
2019-06-26T07:42:15.819Z,58.33
2019-06-26T07:43:16.807Z,58.33
2019-06-26T07:44:16.038Z,58.60
2019-06-26T07:45:17.811Z,58.99
2019-06-26T07:46:18.407Z,59.14
2019-06-26T07:47:23.471Z,59.44
2019-06-26T07:48:18.212Z,59.34
2019-06-26T07:49:18.880Z,59.09
2019-06-26T07:50:20.711Z,59.16
2019-06-26T07:51:20.947Z,59.19
2019-06-26T07:52:21.631Z,59.64
2019-06-26T07:53:22.580Z,59.66
2019-06-26T07:54:22.255Z,59.43
2019-06-26T07:55:23.159Z,60.46
2019-06-26T07:56:24.833Z,60.14
2019-06-26T07:57:23.863Z,60.03
2019-06-26T07:58:25.637Z,59.86
2019-06-26T07:59:25.658Z,59.65
2019-06-26T08:00:26.528Z,59.14
2019-06-26T08:01:27.488Z,59.63
2019-06-26T08:02:27.084Z,59.31
2019-06-26T08:03:28.788Z,59.05
2019-06-26T08:04:29.510Z,59.04
2019-06-26T08:05:30.442Z,59.36
2019-06-26T08:06:31.345Z,59.71
2019-06-26T08:07:31.413Z,59.93
2019-06-26T08:08:31.595Z,59.89
2019-06-26T08:09:32.179Z,59.45
2019-06-26T08:10:32.283Z,59.43
2019-06-26T08:11:31.351Z,59.41
2019-06-26T08:12:32.209Z,59.60
2019-06-26T08:13:33.270Z,60.29
2019-06-26T08:14:33.970Z,60.20
2019-06-26T08:15:34.917Z,60.01
2019-06-26T08:16:35.545Z,60.14
2019-06-26T08:17:35.655Z,60.97
2019-06-26T08:18:34.772Z,60.67
2019-06-26T08:19:36.730Z,60.58
2019-06-26T08:20:51.966Z,60.18
2019-06-26T08:21:37.095Z,60.36
2019-06-26T08:22:37.214Z,60.20
2019-06-26T08:23:39.212Z,60.83
2019-06-26T08:24:38.293Z,61.09
2019-06-26T08:25:38.982Z,60.68
2019-06-26T08:26:40.122Z,60.52
2019-06-26T08:27:40.923Z,60.84
2019-06-26T08:28:41.057Z,61.29
2019-06-26T08:29:41.292Z,61.63
2019-06-26T08:30:42.122Z,61.82
2019-06-26T08:31:42.905Z,62.21
2019-06-26T08:32:43.511Z,61.90
2019-06-26T08:32:52.095Z,62.86
2019-06-26T08:33:53.906Z,62.86
2019-06-26T08:34:54.852Z,62.58
2019-06-26T08:35:54.652Z,62.59
2019-06-26T08:36:54.702Z,62.31
2019-06-26T08:38:09.434Z,62.33
2019-06-26T08:38:56.399Z,63.28
2019-06-26T08:39:58.120Z,62.75
2019-06-26T08:40:58.903Z,62.58
2019-06-26T08:41:58.840Z,62.59
2019-06-26T08:42:59.893Z,62.88
2019-06-26T08:44:00.103Z,62.82
2019-06-26T08:44:59.137Z,62.66
2019-06-26T08:46:00.993Z,62.54
2019-06-26T08:47:01.038Z,62.42
2019-06-26T08:48:16.914Z,62.57
2019-06-26T08:49:03.160Z,62.04
2019-06-26T08:50:02.996Z,62.32
2019-06-26T08:51:02.862Z,62.71
2019-06-26T08:52:02.756Z,62.36
2019-06-26T08:53:03.458Z,63.21
2019-06-26T08:54:05.427Z,62.63
2019-06-26T08:55:05.692Z,63.01
2019-06-26T08:56:05.868Z,62.88
2019-06-26T08:57:04.999Z,62.78
2019-06-26T08:58:06.621Z,62.90
2019-06-26T08:59:07.616Z,62.44
2019-06-26T09:00:07.604Z,62.38
2019-06-26T09:01:07.641Z,62.10
2019-06-26T09:02:07.693Z,62.79
2019-06-26T09:03:08.560Z,62.65
2019-06-26T09:04:09.598Z,62.61
2019-06-26T09:05:10.555Z,62.89
2019-06-26T09:06:10.467Z,63.31
2019-06-26T09:07:12.244Z,63.55
2019-06-26T09:08:13.278Z,63.12
2019-06-26T09:09:13.091Z,63.00
2019-06-26T09:10:14.981Z,62.91
2019-06-26T09:11:15.714Z,63.37
2019-06-26T09:12:16.456Z,63.57
2019-06-26T09:13:17.244Z,63.21
2019-06-26T09:14:18.249Z,63.10
2019-06-26T09:15:18.355Z,63.33
2019-06-26T09:16:18.993Z,63.13
2019-06-26T09:17:19.659Z,63.35
2019-06-26T09:18:34.872Z,63.68
2019-06-26T09:19:20.136Z,63.22
2019-06-26T09:20:21.983Z,62.99
2019-06-26T09:21:22.943Z,63.33
2019-06-26T09:22:23.730Z,63.42
2019-06-26T09:23:24.565Z,62.89
2019-06-26T09:24:25.401Z,63.18
2019-06-26T09:25:26.300Z,62.65
2019-06-26T09:25:34.890Z,62.54
2019-06-26T09:26:36.032Z,62.53
2019-06-26T09:27:36.179Z,62.45
2019-06-26T09:28:36.266Z,61.77
2019-06-26T09:29:37.071Z,62.04
2019-06-26T09:30:37.963Z,61.46
2019-06-26T09:31:38.625Z,61.38
2019-06-26T09:32:39.344Z,61.09
2019-06-26T09:33:39.397Z,60.36
2019-06-26T09:34:39.401Z,60.51
2019-06-26T09:35:40.107Z,60.80
2019-06-26T09:36:40.817Z,60.11
2019-06-26T09:37:40.121Z,60.45
2019-06-26T09:38:42.112Z,60.69
2019-06-26T09:39:42.835Z,60.70
2019-06-26T09:40:43.693Z,60.78
2019-06-26T09:41:43.894Z,60.84
2019-06-26T09:42:44.699Z,59.89
2019-06-26T09:43:45.579Z,60.23
2019-06-26T09:44:46.332Z,60.31
2019-06-26T09:45:46.991Z,60.03
2019-06-26T09:46:47.639Z,60.36
2019-06-26T09:47:47.908Z,60.59
2019-06-26T09:48:53.044Z,59.93
2019-06-26T09:49:47.831Z,60.32
2019-06-26T09:50:49.483Z,60.55
2019-06-26T09:51:49.697Z,60.31
2019-06-26T09:52:50.353Z,58.92
2019-06-26T09:53:50.127Z,58.90
2019-06-26T09:54:51.114Z,59.72
2019-06-26T09:55:51.868Z,59.79
2019-06-26T09:56:52.843Z,59.50
2019-06-26T09:57:53.787Z,60.38
2019-06-26T09:58:54.663Z,59.06
2019-06-26T09:59:53.832Z,58.76
2019-06-26T10:00:55.516Z,58.74
2019-06-26T10:01:55.702Z,58.50
2019-06-26T10:02:55.163Z,58.65
2019-06-26T10:03:57.083Z,57.96
2019-06-26T10:04:57.842Z,58.03
2019-06-26T10:05:58.503Z,58.68
2019-06-26T10:06:59.328Z,58.98
2019-06-26T10:08:00.001Z,59.02
2019-06-26T10:09:00.412Z,58.55
2019-06-26T10:10:00.532Z,58.45
2019-06-26T10:11:02.339Z,58.18
2019-06-26T10:12:01.766Z,57.99
2019-06-26T10:12:10.277Z,57.62
2019-06-26T10:13:11.481Z,57.68
2019-06-26T10:14:12.239Z,56.54
2019-06-26T10:15:13.188Z,56.44
2019-06-26T10:16:13.865Z,56.68
2019-06-26T10:17:14.437Z,56.94
2019-06-26T10:18:15.191Z,56.44
2019-06-26T10:19:15.862Z,56.81
2019-06-26T10:20:16.748Z,57.28
2019-06-26T10:21:17.653Z,57.97
2019-06-26T10:22:18.647Z,57.12
2019-06-26T10:23:18.715Z,57.21
2019-06-26T10:24:19.698Z,57.22
2019-06-26T10:25:19.855Z,57.41
2019-06-26T10:26:20.730Z,57.73
2019-06-26T10:27:21.513Z,57.38
2019-06-26T10:28:21.776Z,56.11
2019-06-26T10:29:22.747Z,55.60
2019-06-26T10:30:23.500Z,55.99
2019-06-26T10:31:24.481Z,55.93
2019-06-26T10:32:25.407Z,56.07
2019-06-26T10:33:26.335Z,55.43
2019-06-26T10:34:26.998Z,54.57
2019-06-26T10:35:27.761Z,54.00
2019-06-26T10:36:28.451Z,54.17
2019-06-26T10:37:29.216Z,54.99
2019-06-26T10:38:29.964Z,55.20
2019-06-26T10:39:30.845Z,54.97
2019-06-26T10:40:31.625Z,54.95
2019-06-26T10:41:32.547Z,54.63
2019-06-26T10:42:32.671Z,54.38
2019-06-26T10:43:33.578Z,54.43
2019-06-26T10:44:34.053Z,54.41
2019-06-26T10:45:36.163Z,53.90
2019-06-26T10:46:33.421Z,54.31
2019-06-26T10:47:34.635Z,54.43
2019-06-26T10:48:34.770Z,54.23
2019-06-26T10:49:35.753Z,53.51
2019-06-26T10:50:47.586Z,53.86
2019-06-26T10:51:35.457Z,53.69
2019-06-26T10:52:37.220Z,54.46
2019-06-26T10:53:38.118Z,54.17
2019-06-26T10:54:39.054Z,53.20
2019-06-26T10:55:39.812Z,53.82
2019-06-26T10:56:40.709Z,52.75
2019-06-26T10:56:49.777Z,52.81
2019-06-26T10:57:50.486Z,52.81
2019-06-26T10:58:52.282Z,52.65
2019-06-26T10:59:55.670Z,51.71
2019-06-26T11:00:52.811Z,51.54
2019-06-26T11:01:54.159Z,51.67
2019-06-26T11:02:54.845Z,53.28
2019-06-26T11:03:55.650Z,52.68
2019-06-26T11:04:57.514Z,52.90
2019-06-26T11:05:57.246Z,52.69
2019-06-26T11:06:58.492Z,52.32
2019-06-26T11:07:58.074Z,51.35
2019-06-26T11:08:59.984Z,51.71
2019-06-26T11:10:00.729Z,51.73
2019-06-26T11:11:01.490Z,51.98
2019-06-26T11:12:02.641Z,51.08
2019-06-26T11:13:01.674Z,51.20
2019-06-26T11:14:02.403Z,50.92
2019-06-26T11:15:03.223Z,50.87
2019-06-26T11:16:03.117Z,50.61
2019-06-26T11:17:04.964Z,51.21
2019-06-26T11:18:05.199Z,51.13
2019-06-26T11:19:05.385Z,50.73
2019-06-26T11:20:05.624Z,49.41
2019-06-26T11:21:05.706Z,49.60
2019-06-26T11:22:06.633Z,49.57
2019-06-26T11:23:07.619Z,48.45
2019-06-26T11:24:07.687Z,48.72
2019-06-26T11:25:07.724Z,48.40
2019-06-26T11:26:08.623Z,48.37
2019-06-26T11:27:09.533Z,47.99
2019-06-26T11:28:09.740Z,47.53
2019-06-26T11:29:10.003Z,46.96
2019-06-26T11:30:10.173Z,45.44
2019-06-26T11:31:11.054Z,45.48
2019-06-26T11:32:11.235Z,45.23
2019-06-26T11:33:12.183Z,45.70
2019-06-26T11:34:12.379Z,46.76
2019-06-26T11:35:13.402Z,47.37
2019-06-26T11:36:13.429Z,47.89
2019-06-26T11:37:13.433Z,48.43
2019-06-26T11:38:13.572Z,48.87
2019-06-26T11:39:13.824Z,48.77
2019-06-26T11:40:14.292Z,48.48
2019-06-26T11:41:14.593Z,48.82
2019-06-26T11:42:15.006Z,48.75
2019-06-26T11:43:15.925Z,47.02
2019-06-26T11:44:15.998Z,46.54
2019-06-26T11:44:24.566Z,47.05
2019-06-26T11:45:24.769Z,47.44
2019-06-26T11:46:25.844Z,47.68
2019-06-26T11:47:26.217Z,46.76
2019-06-26T11:48:26.521Z,46.79
2019-06-26T11:49:26.766Z,47.26
2019-06-26T11:50:27.600Z,47.67
2019-06-26T11:51:28.461Z,48.09
2019-06-26T11:52:29.342Z,48.02
2019-06-26T11:53:29.581Z,47.94
2019-06-26T11:54:30.305Z,47.94
2019-06-26T11:55:30.358Z,48.25
2019-06-26T11:56:30.909Z,48.68
2019-06-26T11:57:30.968Z,48.54
2019-06-26T11:58:30.126Z,48.59
2019-06-26T11:59:31.159Z,48.17
2019-06-26T12:00:31.491Z,48.23
2019-06-26T12:01:31.606Z,48.35
2019-06-26T12:02:31.693Z,47.92
2019-06-26T12:03:31.881Z,48.40
2019-06-26T12:04:31.978Z,48.58
2019-06-26T12:05:32.265Z,47.79
2019-06-26T12:06:32.771Z,48.49
2019-06-26T12:07:31.825Z,48.33
2019-06-26T12:08:33.035Z,48.12
2019-06-26T12:09:33.387Z,47.93
2019-06-26T12:10:33.720Z,48.38
2019-06-26T12:11:34.055Z,48.09
2019-06-26T12:12:34.492Z,48.23
2019-06-26T12:13:34.673Z,48.52
2019-06-26T12:14:34.852Z,48.18
2019-06-26T12:15:35.403Z,47.74
2019-06-26T12:16:35.615Z,47.41
2019-06-26T12:17:35.824Z,48.40
2019-06-26T12:18:35.985Z,48.40
2019-06-26T12:19:36.222Z,47.91
2019-06-26T12:20:36.254Z,48.01
2019-06-26T12:21:36.397Z,47.87
2019-06-26T12:22:36.650Z,48.36
2019-06-26T12:23:36.859Z,48.57
2019-06-26T12:24:36.967Z,48.18
2019-06-26T12:25:37.153Z,48.15
2019-06-26T12:26:37.315Z,48.07
2019-06-26T12:27:36.441Z,47.40
2019-06-26T12:28:37.864Z,48.15
2019-06-26T12:28:46.425Z,48.04
2019-06-26T12:29:48.024Z,48.02
2019-06-26T12:30:48.332Z,47.64
2019-06-26T12:31:48.425Z,48.20
2019-06-26T12:33:02.387Z,48.66
2019-06-26T12:33:48.253Z,48.58
2019-06-26T12:34:49.514Z,48.51
2019-06-26T12:35:49.214Z,48.56
2019-06-26T12:36:50.742Z,48.04
2019-06-26T12:37:50.110Z,47.73
2019-06-26T12:38:51.314Z,47.68
2019-06-26T12:39:50.508Z,48.01
2019-06-26T12:40:51.764Z,48.15
2019-06-26T12:41:51.943Z,47.93
2019-06-26T12:42:55.712Z,46.68
2019-06-26T12:43:52.460Z,47.39
2019-06-26T12:44:53.518Z,47.24